createdAt,value
2019-02-24T00:01:02.120Z,-3.98
2019-02-24T00:03:31.212Z,-3.99
2019-02-24T00:06:00.010Z,-4.04
2019-02-24T00:08:29.002Z,-4.11
2019-02-24T00:10:57.727Z,-4.08
2019-02-24T00:13:26.469Z,-4.09
2019-02-24T00:15:55.266Z,-4.12
2019-02-24T00:18:25.506Z,-4.10
2019-02-24T00:20:54.291Z,-4.23
2019-02-24T00:23:22.961Z,-4.25
2019-02-24T00:25:51.953Z,-4.28
2019-02-24T00:28:20.754Z,-4.26
2019-02-24T00:30:49.531Z,-4.18
2019-02-24T00:33:18.233Z,-4.16
2019-02-24T00:35:49.569Z,-4.14
2019-02-24T00:38:18.263Z,-4.30
2019-02-24T00:40:46.875Z,-4.40
2019-02-24T00:43:15.627Z,-4.41
2019-02-24T00:45:44.729Z,-4.31
2019-02-24T00:48:13.508Z,-4.30
2019-02-24T00:50:42.532Z,-4.34
2019-02-24T00:53:12.829Z,-4.40
2019-02-24T00:55:41.521Z,-4.44
2019-02-24T00:58:16.002Z,-4.42
2019-02-24T01:00:42.267Z,-4.46
2019-02-24T01:03:11.061Z,-4.62
2019-02-24T01:05:39.834Z,-4.58
2019-02-24T01:08:08.906Z,-4.40
2019-02-24T01:10:37.638Z,-4.48
2019-02-24T01:13:07.891Z,-4.63
2019-02-24T01:15:36.563Z,-4.64
2019-02-24T01:18:05.235Z,-4.61
2019-02-24T01:20:33.909Z,-4.64
2019-02-24T01:23:02.693Z,-4.75
2019-02-24T01:25:31.390Z,-4.70
2019-02-24T01:28:00.020Z,-4.69
2019-02-24T01:30:29.213Z,-4.63
2019-02-24T01:33:00.622Z,-4.66
2019-02-24T01:35:29.285Z,-4.73
2019-02-24T01:37:57.991Z,-4.81
2019-02-24T01:40:28.176Z,-4.78
2019-02-24T01:42:56.911Z,-4.71
2019-02-24T01:45:25.689Z,-4.92
2019-02-24T01:47:54.385Z,-4.83
2019-02-24T01:50:24.599Z,-4.95
2019-02-24T01:52:53.291Z,-5.03
2019-02-24T01:55:22.042Z,-4.85
2019-02-24T01:57:50.711Z,-4.79
2019-02-24T02:00:19.955Z,-4.93
2019-02-24T02:02:50.185Z,-4.86
2019-02-24T02:05:20.576Z,-4.74
2019-02-24T02:07:49.235Z,-4.95
2019-02-24T02:10:17.878Z,-5.01
2019-02-24T02:12:46.668Z,-4.89
2019-02-24T02:15:15.349Z,-4.86
2019-02-24T02:17:45.301Z,-4.80
2019-02-24T02:20:14.067Z,-4.77
2019-02-24T02:22:42.845Z,-4.98
2019-02-24T02:25:11.658Z,-5.00
2019-02-24T02:27:40.422Z,-4.90
2019-02-24T02:30:10.988Z,-4.90
2019-02-24T02:32:39.641Z,-4.83
2019-02-24T02:35:08.836Z,-4.97
2019-02-24T02:37:37.634Z,-5.05
2019-02-24T02:40:08.276Z,-5.02
2019-02-24T02:42:36.950Z,-5.07
2019-02-24T02:45:08.248Z,-5.03
2019-02-24T02:47:36.999Z,-5.07
2019-02-24T02:50:06.478Z,-5.36
2019-02-24T02:52:35.231Z,-5.28
2019-02-24T02:55:04.471Z,-5.21
2019-02-24T02:57:33.176Z,-5.28
2019-02-24T03:00:02.047Z,-5.33
2019-02-24T03:02:30.775Z,-5.08
2019-02-24T03:04:59.424Z,-5.13
2019-02-24T03:07:32.721Z,-5.19
2019-02-24T03:10:02.834Z,-5.29
2019-02-24T03:12:31.609Z,-5.26
2019-02-24T03:15:00.722Z,-5.34
2019-02-24T03:17:29.678Z,-5.44
2019-02-24T03:19:58.402Z,-5.28
2019-02-24T03:22:27.198Z,-5.26
2019-02-24T03:24:55.992Z,-5.29
2019-02-24T03:27:25.545Z,-5.33
2019-02-24T03:29:54.276Z,-5.27
2019-02-24T03:32:22.959Z,-5.26
2019-02-24T03:34:51.748Z,-5.37
2019-02-24T03:37:20.436Z,-5.43
2019-02-24T03:39:49.150Z,-5.52
2019-02-24T03:42:17.910Z,-5.60
2019-02-24T03:44:46.923Z,-5.47
2019-02-24T03:47:15.902Z,-5.43
2019-02-24T03:49:44.710Z,-5.42
2019-02-24T03:52:13.401Z,-5.52
2019-02-24T03:54:43.619Z,-5.42
2019-02-24T03:57:12.379Z,-5.73
2019-02-24T03:59:42.507Z,-5.60
2019-02-24T04:02:11.290Z,-5.57
2019-02-24T04:04:39.975Z,-5.59
2019-02-24T04:07:09.235Z,-5.63
2019-02-24T04:09:38.796Z,-5.78
2019-02-24T04:12:07.470Z,-5.68
2019-02-24T04:14:36.160Z,-5.65
2019-02-24T04:17:04.842Z,-5.63
2019-02-24T04:19:34.452Z,-5.59
2019-02-24T04:22:03.133Z,-5.68
2019-02-24T04:24:31.863Z,-5.79
2019-02-24T04:27:00.622Z,-5.75
2019-02-24T04:29:31.339Z,-5.78
2019-02-24T04:31:59.933Z,-5.87
2019-02-24T04:34:28.633Z,-5.71
2019-02-24T04:36:58.678Z,-5.67
2019-02-24T04:39:29.846Z,-5.86
2019-02-24T04:41:58.727Z,-6.25
2019-02-24T04:44:27.563Z,-6.09
2019-02-24T04:46:59.474Z,-6.15
2019-02-24T04:49:28.210Z,-5.90
2019-02-24T04:52:04.287Z,-5.96
2019-02-24T04:54:33.058Z,-5.91
2019-02-24T04:57:03.424Z,-6.00
2019-02-24T04:59:34.981Z,-6.04
2019-02-24T05:02:02.593Z,-6.10
2019-02-24T05:04:31.218Z,-6.04
2019-02-24T05:07:01.830Z,-6.05
2019-02-24T05:09:30.502Z,-6.06
2019-02-24T05:12:02.141Z,-6.04
2019-02-24T05:14:30.853Z,-5.96
2019-02-24T05:17:02.819Z,-5.94
2019-02-24T05:19:31.460Z,-5.97
2019-02-24T05:22:01.819Z,-5.98
2019-02-24T05:24:31.695Z,-5.99
2019-02-24T05:27:00.413Z,-6.05
2019-02-24T05:29:30.377Z,-5.98
2019-02-24T05:32:01.892Z,-6.13
2019-02-24T05:34:32.131Z,-6.04
2019-02-24T05:37:09.600Z,-6.07
2019-02-24T05:39:38.437Z,-6.08
2019-02-24T05:42:07.197Z,-6.11
2019-02-24T05:44:35.862Z,-6.07
2019-02-24T05:47:05.883Z,-6.21
2019-02-24T05:49:34.576Z,-6.13
2019-02-24T05:52:03.256Z,-6.24
2019-02-24T05:54:31.944Z,-6.23
2019-02-24T05:57:00.731Z,-6.06
2019-02-24T05:59:29.412Z,-6.28
2019-02-24T06:01:58.020Z,-6.34
2019-02-24T06:04:26.890Z,-6.26
2019-02-24T06:06:55.577Z,-6.37
2019-02-24T06:09:24.261Z,-6.22
2019-02-24T06:11:55.440Z,-6.24
2019-02-24T06:14:26.459Z,-6.17
2019-02-24T06:16:55.153Z,-6.05
2019-02-24T06:19:25.765Z,-6.23
2019-02-24T06:21:54.497Z,-6.18
2019-02-24T06:24:23.469Z,-5.73
2019-02-24T06:26:52.259Z,-4.81
2019-02-24T06:29:20.927Z,-3.80
2019-02-24T06:31:49.715Z,-4.12
2019-02-24T06:34:18.534Z,-4.46
2019-02-24T06:36:47.334Z,-4.64
2019-02-24T06:39:16.101Z,-4.80
2019-02-24T06:41:44.977Z,-4.94
2019-02-24T06:44:13.665Z,-5.32
2019-02-24T06:46:42.356Z,-5.39
2019-02-24T06:49:11.042Z,-5.28
2019-02-24T06:51:39.830Z,-5.25
2019-02-24T06:54:08.504Z,-5.51
2019-02-24T06:56:37.285Z,-5.36
2019-02-24T06:59:06.286Z,-5.16
2019-02-24T07:01:35.297Z,-5.14
2019-02-24T07:04:04.279Z,-5.31
2019-02-24T07:06:32.966Z,-5.19
2019-02-24T07:09:01.752Z,-5.05
2019-02-24T07:11:30.378Z,-4.92
2019-02-24T07:13:59.730Z,-4.73
2019-02-24T07:16:28.338Z,-4.53
2019-02-24T07:18:57.336Z,-4.40
2019-02-24T07:21:25.999Z,-4.42
2019-02-24T07:23:54.807Z,-4.74
2019-02-24T07:26:24.225Z,-5.01
2019-02-24T07:28:52.843Z,-4.72
2019-02-24T07:31:21.563Z,-4.57
2019-02-24T07:33:50.251Z,-4.46
2019-02-24T07:36:19.040Z,-4.22
2019-02-24T07:38:48.187Z,-4.27
2019-02-24T07:41:17.029Z,-4.38
2019-02-24T07:43:45.815Z,-4.23
2019-02-24T07:46:14.497Z,-4.47
2019-02-24T07:48:43.803Z,-4.55
2019-02-24T07:51:13.100Z,-4.34
2019-02-24T07:53:41.903Z,-4.35
2019-02-24T07:56:10.685Z,-4.15
2019-02-24T07:58:39.480Z,-4.04
2019-02-24T08:01:08.264Z,-3.81
2019-02-24T08:03:36.954Z,-3.53
2019-02-24T08:06:06.053Z,-3.33
2019-02-24T08:08:34.841Z,-3.58
2019-02-24T08:11:03.847Z,-3.92
2019-02-24T08:13:32.617Z,-3.92
2019-02-24T08:16:01.425Z,-3.47
2019-02-24T08:18:30.047Z,-3.32
2019-02-24T08:20:58.831Z,-3.40
2019-02-24T08:23:27.768Z,-3.41
2019-02-24T08:25:56.665Z,-2.73
2019-02-24T08:28:26.469Z,-2.09
2019-02-24T08:30:55.174Z,-2.87
2019-02-24T08:33:24.050Z,-2.57
2019-02-24T08:35:53.054Z,-2.15
2019-02-24T08:38:22.064Z,-1.70
2019-02-24T08:40:50.737Z,-1.30
2019-02-24T08:43:19.515Z,-1.83
2019-02-24T08:45:48.305Z,-2.06
2019-02-24T08:48:19.163Z,-2.20
2019-02-24T08:50:49.264Z,-1.92
2019-02-24T08:53:17.939Z,-1.80
2019-02-24T08:55:47.016Z,-1.36
2019-02-24T08:58:18.282Z,-1.95
2019-02-24T09:00:51.354Z,-1.87
2019-02-24T09:03:20.286Z,-1.41
2019-02-24T09:05:50.596Z,-0.84
2019-02-24T09:08:23.887Z,0.22
2019-02-24T09:10:52.588Z,0.58
2019-02-24T09:13:23.083Z,0.95
2019-02-24T09:15:53.371Z,0.84
2019-02-24T09:18:22.422Z,0.81
2019-02-24T09:20:51.621Z,0.13
2019-02-24T09:23:20.505Z,0.66
2019-02-24T09:25:49.134Z,0.10
2019-02-24T09:28:20.854Z,0.19
2019-02-24T09:30:50.055Z,0.33
2019-02-24T09:33:36.136Z,0.04
2019-02-24T09:36:06.886Z,-0.50
2019-02-24T09:38:37.004Z,0.06
2019-02-24T09:41:10.090Z,-0.14
2019-02-24T09:44:08.412Z,0.50
2019-02-24T09:46:16.167Z,0.69
2019-02-24T09:48:45.682Z,0.58
2019-02-24T09:51:29.428Z,0.83
2019-02-24T09:54:00.671Z,2.01
2019-02-24T09:56:53.018Z,2.57
2019-02-24T09:59:22.541Z,1.69
2019-02-24T10:01:51.745Z,3.17
2019-02-24T10:04:21.010Z,3.13
2019-02-24T10:06:50.940Z,1.84
2019-02-24T10:09:19.812Z,2.35
2019-02-24T10:11:50.347Z,2.78
2019-02-24T10:14:20.538Z,1.86
2019-02-24T10:16:49.247Z,2.25
2019-02-24T10:19:17.971Z,1.67
2019-02-24T10:21:46.637Z,2.00
2019-02-24T10:24:15.305Z,2.03
2019-02-24T10:26:45.487Z,2.73
2019-02-24T10:29:15.918Z,2.72
2019-02-24T10:31:45.137Z,3.07
2019-02-24T10:34:15.648Z,3.54
2019-02-24T10:36:45.703Z,3.60
2019-02-24T10:39:16.140Z,3.20
2019-02-24T10:41:47.374Z,4.42
2019-02-24T10:44:19.240Z,4.13
2019-02-24T10:46:48.391Z,4.23
2019-02-24T10:49:19.441Z,4.23
2019-02-24T10:51:48.424Z,3.22
2019-02-24T10:54:20.276Z,3.18
2019-02-24T10:56:51.363Z,2.22
2019-02-24T10:59:21.165Z,2.65
2019-02-24T11:01:49.972Z,3.05
2019-02-24T11:04:31.764Z,3.51
2019-02-24T11:07:01.783Z,4.11
2019-02-24T11:09:32.001Z,3.67
2019-02-24T11:12:00.855Z,3.69
2019-02-24T11:14:29.695Z,3.36
2019-02-24T11:16:58.582Z,3.97
2019-02-24T11:19:27.586Z,4.36
2019-02-24T11:21:56.359Z,3.31
2019-02-24T11:24:28.089Z,3.21
2019-02-24T11:26:56.767Z,3.73
2019-02-24T11:29:25.623Z,3.74
2019-02-24T11:31:54.404Z,3.63
2019-02-24T11:34:23.181Z,3.75
2019-02-24T11:36:53.701Z,3.76
2019-02-24T11:39:22.452Z,3.78
2019-02-24T11:41:51.200Z,3.63
2019-02-24T11:44:19.974Z,3.41
2019-02-24T11:46:48.705Z,4.14
2019-02-24T11:49:19.402Z,3.73
2019-02-24T11:51:49.511Z,3.53
2019-02-24T11:54:18.451Z,3.91
2019-02-24T11:56:50.369Z,3.73
2019-02-24T11:59:19.052Z,3.88
2019-02-24T12:01:47.983Z,4.00
2019-02-24T12:04:19.479Z,4.06
2019-02-24T12:06:48.725Z,4.94
2019-02-24T12:09:17.601Z,5.13
2019-02-24T12:11:47.831Z,4.98
2019-02-24T12:14:16.768Z,5.00
2019-02-24T12:16:47.329Z,5.45
2019-02-24T12:19:16.442Z,5.80
2019-02-24T12:21:45.225Z,6.27
2019-02-24T12:24:16.083Z,6.63
2019-02-24T12:26:44.853Z,6.86
2019-02-24T12:29:14.245Z,6.91
2019-02-24T12:31:43.160Z,7.08
2019-02-24T12:34:11.928Z,6.93
2019-02-24T12:36:43.723Z,6.38
2019-02-24T12:39:15.557Z,6.35
2019-02-24T12:41:44.447Z,6.16
2019-02-24T12:44:13.327Z,6.12
2019-02-24T12:46:44.879Z,5.61
2019-02-24T12:49:13.755Z,5.28
2019-02-24T12:51:42.867Z,5.46
2019-02-24T12:54:11.777Z,5.33
2019-02-24T12:56:41.834Z,5.55
2019-02-24T12:59:14.678Z,5.69
2019-02-24T13:01:44.293Z,5.61
2019-02-24T13:04:14.901Z,5.90
2019-02-24T13:06:43.890Z,5.84
2019-02-24T13:09:12.903Z,5.73
2019-02-24T13:11:43.126Z,5.63
2019-02-24T13:14:15.744Z,5.57
2019-02-24T13:16:44.796Z,5.94
2019-02-24T13:19:15.147Z,6.33
2019-02-24T13:21:44.008Z,6.11
2019-02-24T13:24:15.547Z,6.01
2019-02-24T13:26:44.236Z,5.98
2019-02-24T13:29:15.061Z,5.43
2019-02-24T13:31:46.427Z,5.34
2019-02-24T13:34:17.973Z,5.81
2019-02-24T13:36:46.670Z,5.83
2019-02-24T13:39:15.356Z,5.78
2019-02-24T13:41:44.179Z,5.52
2019-02-24T13:44:17.123Z,5.51
2019-02-24T13:46:45.915Z,5.28
2019-02-24T13:49:22.098Z,5.72
2019-02-24T13:51:50.975Z,5.95
2019-02-24T13:54:21.205Z,6.32
2019-02-24T13:56:57.452Z,6.01
2019-02-24T13:59:26.137Z,5.74
2019-02-24T14:01:54.941Z,5.57
2019-02-24T14:04:25.553Z,5.37
2019-02-24T14:06:55.471Z,5.52
2019-02-24T14:09:24.266Z,6.02
2019-02-24T14:11:53.060Z,6.01
2019-02-24T14:14:23.185Z,5.69
2019-02-24T14:16:51.996Z,5.56
2019-02-24T14:19:20.850Z,5.38
2019-02-24T14:21:53.991Z,5.47
2019-02-24T14:24:23.031Z,5.88
2019-02-24T14:26:51.743Z,6.08
2019-02-24T14:29:20.725Z,6.18
2019-02-24T14:31:53.698Z,6.08
2019-02-24T14:34:23.114Z,5.95
2019-02-24T14:36:52.029Z,5.90
2019-02-24T14:39:22.301Z,5.77
2019-02-24T14:41:54.182Z,5.64
2019-02-24T14:44:24.641Z,5.70
2019-02-24T14:46:53.720Z,5.70
2019-02-24T14:49:24.340Z,5.62
2019-02-24T14:51:56.098Z,5.57
2019-02-24T14:54:25.783Z,5.52
2019-02-24T14:56:58.487Z,5.55
2019-02-24T14:59:27.929Z,5.45
2019-02-24T15:01:56.879Z,5.29
2019-02-24T15:04:27.128Z,5.21
2019-02-24T15:06:55.907Z,5.28
2019-02-24T15:09:24.996Z,5.30
2019-02-24T15:11:53.935Z,5.25
2019-02-24T15:14:24.445Z,5.17
2019-02-24T15:16:53.707Z,5.33
2019-02-24T15:19:22.605Z,5.09
2019-02-24T15:21:53.240Z,4.97
2019-02-24T15:24:22.528Z,5.10
2019-02-24T15:26:53.696Z,5.18
2019-02-24T15:29:23.653Z,5.10
2019-02-24T15:31:52.555Z,5.09
2019-02-24T15:34:21.308Z,5.07
2019-02-24T15:36:51.041Z,5.12
2019-02-24T15:39:20.260Z,5.03
2019-02-24T15:41:49.583Z,5.01
2019-02-24T15:44:18.409Z,5.01
2019-02-24T15:46:47.391Z,5.03
2019-02-24T15:49:17.735Z,4.93
2019-02-24T15:51:46.724Z,4.83
2019-02-24T15:54:17.339Z,4.77
2019-02-24T15:56:49.280Z,4.67
2019-02-24T15:59:19.856Z,4.55
2019-02-24T16:01:49.962Z,4.46
2019-02-24T16:04:19.058Z,4.47
2019-02-24T16:06:47.843Z,4.28
2019-02-24T16:09:19.885Z,4.24
2019-02-24T16:11:48.671Z,4.39
2019-02-24T16:14:18.328Z,4.35
2019-02-24T16:16:47.065Z,4.40
2019-02-24T16:19:16.164Z,4.28
2019-02-24T16:21:46.313Z,4.34
2019-02-24T16:24:15.334Z,4.36
2019-02-24T16:26:44.957Z,4.28
2019-02-24T16:29:14.167Z,4.15
2019-02-24T16:31:42.984Z,4.12
2019-02-24T16:34:11.883Z,4.02
2019-02-24T16:36:40.553Z,3.99
2019-02-24T16:39:10.966Z,3.97
2019-02-24T16:41:39.992Z,3.86
2019-02-24T16:44:08.876Z,3.83
2019-02-24T16:46:41.728Z,3.68
2019-02-24T16:49:10.541Z,3.71
2019-02-24T16:51:39.541Z,3.61
2019-02-24T16:54:10.196Z,3.54
2019-02-24T16:56:38.858Z,3.59
2019-02-24T16:59:07.633Z,3.58
2019-02-24T17:01:39.725Z,3.48
2019-02-24T17:04:08.678Z,3.50
2019-02-24T17:06:37.490Z,3.45
2019-02-24T17:09:06.987Z,3.39
2019-02-24T17:11:36.223Z,3.39
2019-02-24T17:14:05.416Z,3.50
2019-02-24T17:16:34.402Z,3.47
2019-02-24T17:19:03.929Z,3.38
2019-02-24T17:21:32.782Z,3.29
2019-02-24T17:24:01.608Z,3.33
2019-02-24T17:26:30.270Z,3.29
2019-02-24T17:29:02.017Z,3.27
2019-02-24T17:31:30.730Z,3.37
2019-02-24T17:34:00.026Z,3.43
2019-02-24T17:36:29.293Z,3.51
2019-02-24T17:38:58.292Z,3.41
2019-02-24T17:41:27.286Z,3.27
2019-02-24T17:44:00.331Z,3.25
2019-02-24T17:46:29.702Z,3.23
2019-02-24T17:48:58.572Z,3.10
2019-02-24T17:51:27.695Z,3.02
2019-02-24T17:53:56.550Z,3.08
2019-02-24T17:56:27.542Z,3.06
2019-02-24T17:58:58.123Z,3.07
2019-02-24T18:01:27.228Z,3.05
2019-02-24T18:03:59.292Z,3.12
2019-02-24T18:06:28.189Z,3.01
2019-02-24T18:08:58.422Z,3.03
2019-02-24T18:11:27.118Z,3.04
2019-02-24T18:13:57.016Z,3.08
2019-02-24T18:16:27.501Z,3.12
2019-02-24T18:18:56.219Z,3.09
2019-02-24T18:21:25.117Z,3.09
2019-02-24T18:23:53.913Z,2.95
2019-02-24T18:26:22.831Z,3.00
2019-02-24T18:28:51.636Z,3.03
2019-02-24T18:31:20.648Z,2.96
2019-02-24T18:33:51.036Z,3.06
2019-02-24T18:36:21.964Z,2.97
2019-02-24T18:38:51.445Z,2.90
2019-02-24T18:41:21.426Z,2.83
2019-02-24T18:43:53.779Z,2.81
2019-02-24T18:46:24.728Z,2.77
2019-02-24T18:48:53.534Z,2.74
2019-02-24T18:51:22.493Z,2.80
2019-02-24T18:53:52.974Z,2.66
2019-02-24T18:56:21.701Z,2.66
2019-02-24T18:58:50.739Z,2.61
2019-02-24T19:01:21.597Z,2.69
2019-02-24T19:03:57.350Z,2.65
2019-02-24T19:06:21.898Z,2.55
2019-02-24T19:08:50.633Z,2.67
2019-02-24T19:11:19.590Z,2.69
2019-02-24T19:13:49.926Z,2.62
2019-02-24T19:16:20.743Z,2.70
2019-02-24T19:18:50.068Z,2.70
2019-02-24T19:21:21.769Z,2.66
2019-02-24T19:23:51.143Z,2.85
2019-02-24T19:26:20.259Z,2.76
2019-02-24T19:28:49.739Z,2.67
2019-02-24T19:31:18.758Z,2.56
2019-02-24T19:33:48.652Z,2.57
2019-02-24T19:36:17.819Z,2.65
2019-02-24T19:38:48.691Z,2.61
2019-02-24T19:41:19.699Z,2.61
2019-02-24T19:43:49.531Z,2.63
2019-02-24T19:46:18.966Z,2.60
2019-02-24T19:48:47.838Z,2.58
2019-02-24T19:51:16.621Z,2.57
2019-02-24T19:53:47.901Z,2.63
2019-02-24T19:56:16.778Z,2.61
2019-02-24T19:58:48.444Z,2.55
2019-02-24T20:01:17.682Z,2.49
2019-02-24T20:03:46.474Z,2.41
2019-02-24T20:06:15.159Z,2.43
2019-02-24T20:08:43.949Z,2.46
2019-02-24T20:11:12.779Z,2.40
2019-02-24T20:13:42.200Z,2.35
2019-02-24T20:16:11.390Z,2.39
2019-02-24T20:18:40.677Z,2.39
2019-02-24T20:21:09.457Z,2.43
2019-02-24T20:23:38.425Z,2.45
2019-02-24T20:26:07.220Z,2.57
2019-02-24T20:28:40.047Z,2.52
2019-02-24T20:31:09.044Z,2.40
2019-02-24T20:33:38.489Z,2.47
2019-02-24T20:36:08.989Z,2.41
2019-02-24T20:38:37.940Z,2.41
2019-02-24T20:41:07.016Z,2.37
2019-02-24T20:43:36.077Z,2.43
2019-02-24T20:46:06.397Z,2.40
2019-02-24T20:48:35.471Z,2.38
2019-02-24T20:51:04.320Z,2.41
2019-02-24T20:53:33.106Z,2.45
2019-02-24T20:56:01.817Z,2.42
2019-02-24T20:58:30.581Z,2.39
2019-02-24T21:00:59.552Z,2.34
2019-02-24T21:03:28.373Z,2.30
2019-02-24T21:05:57.577Z,2.23
2019-02-24T21:08:29.648Z,2.20
2019-02-24T21:11:01.262Z,2.42
2019-02-24T21:13:31.911Z,2.26
2019-02-24T21:16:02.238Z,2.10
2019-02-24T21:18:31.269Z,2.19
2019-02-24T21:21:00.364Z,2.24
2019-02-24T21:23:29.120Z,2.32
2019-02-24T21:25:57.915Z,2.31
2019-02-24T21:28:26.710Z,2.35
2019-02-24T21:30:55.390Z,2.40
2019-02-24T21:33:24.541Z,2.33
2019-02-24T21:35:53.288Z,2.37
2019-02-24T21:38:22.167Z,2.21
2019-02-24T21:40:51.379Z,2.30
2019-02-24T21:43:20.251Z,2.28
2019-02-24T21:45:49.239Z,2.29
2019-02-24T21:48:18.134Z,2.28
2019-02-24T21:50:47.152Z,2.19
2019-02-24T21:53:15.818Z,2.18
2019-02-24T21:55:46.533Z,2.22
2019-02-24T21:58:15.231Z,2.23
2019-02-24T22:00:43.921Z,2.26
2019-02-24T22:03:12.615Z,2.29
2019-02-24T22:05:41.500Z,2.28
2019-02-24T22:08:10.293Z,2.24
2019-02-24T22:10:38.969Z,2.24
2019-02-24T22:13:07.860Z,2.26
2019-02-24T22:15:36.532Z,2.24
2019-02-24T22:18:08.612Z,2.20
2019-02-24T22:20:38.643Z,2.22
2019-02-24T22:23:07.321Z,2.20
2019-02-24T22:25:36.100Z,2.19
2019-02-24T22:28:06.755Z,2.19
2019-02-24T22:30:35.935Z,2.18
2019-02-24T22:33:04.632Z,2.17
2019-02-24T22:35:33.315Z,2.17
2019-02-24T22:38:02.102Z,2.15
2019-02-24T22:40:31.081Z,2.14
2019-02-24T22:42:59.770Z,2.11
2019-02-24T22:45:28.597Z,1.99
2019-02-24T22:47:57.218Z,2.09
2019-02-24T22:50:26.718Z,2.06
2019-02-24T22:52:55.655Z,2.06
2019-02-24T22:55:24.458Z,2.10
2019-02-24T22:57:53.226Z,2.08
2019-02-24T23:00:48.019Z,2.12
2019-02-24T23:03:16.812Z,2.14
2019-02-24T23:05:45.497Z,2.21
2019-02-24T23:08:14.396Z,2.21
2019-02-24T23:10:43.076Z,2.23
2019-02-24T23:13:11.765Z,2.12
2019-02-24T23:15:40.549Z,2.14
2019-02-24T23:18:09.300Z,2.16
2019-02-24T23:20:38.026Z,2.36
2019-02-24T23:23:06.650Z,2.31
2019-02-24T23:25:35.392Z,2.00
2019-02-24T23:28:04.287Z,2.07
2019-02-24T23:30:33.348Z,2.05
2019-02-24T23:33:02.583Z,2.00
2019-02-24T23:35:31.295Z,1.89
2019-02-24T23:38:00.567Z,1.89
2019-02-24T23:40:29.524Z,1.96
2019-02-24T23:42:58.471Z,1.87
2019-02-24T23:45:27.344Z,1.92
2019-02-24T23:47:56.036Z,1.73
2019-02-24T23:50:24.644Z,1.69
2019-02-24T23:52:53.397Z,1.72
2019-02-24T23:55:22.083Z,1.67
2019-02-24T23:57:50.766Z,1.77
